Time;durP1;ratioP1;P1;durP2;ratioP2;P2;SDS_P1;SDS_P2;PMS_P1;PMS_P2;Temp;Humidity;BMP_temperature;BMP_pressure;BME280_temperature;BME280_humidity;BME280_pressure;Samples;Min_cycle;Max_cycle;Signal;HPM_P1;HPM_P2
2022/06/01 00:00:26;;;;;;;7.50;4.50;;;;;;;18.38;58.81;99665.47;4352555;32;33648;-89
2022/06/01 00:03:02;;;;;;;6.75;3.90;;;;;;;18.31;58.99;99668.47;4365221;32;34663;-90
2022/06/01 00:05:37;;;;;;;6.90;4.30;;;;;;;18.27;59.11;99664.53;4352868;32;33288;-88
2022/06/01 00:08:11;;;;;;;8.60;4.65;;;;;;;18.33;59.05;99663.47;4352752;32;33241;-89
2022/06/01 00:10:44;;;;;;;7.68;4.32;;;;;;;18.14;59.87;99661.34;4352825;32;33589;-90
2022/06/01 00:13:13;;;;;;;6.32;4.10;;;;;;;18.30;59.16;99660.38;4340670;32;33458;-88
2022/06/01 00:15:52;;;;;;;7.20;4.37;;;;;;;18.11;59.57;99654.34;4353165;32;34676;-89
2022/06/01 00:18:25;;;;;;;6.18;3.92;;;;;;;18.05;59.69;99652.63;4353565;32;33275;-88
2022/06/01 00:21:04;;;;;;;7.87;4.37;;;;;;;18.16;59.34;99659.97;4352735;32;32244;-89
2022/06/01 00:23:38;;;;;;;6.90;4.25;;;;;;;18.17;59.24;99658.87;4353631;32;35461;-89
2022/06/01 00:26:08;;;;;;;7.20;4.22;;;;;;;18.25;58.90;99660.31;4365354;32;34973;-90
2022/06/01 00:28:42;;;;;;;6.78;4.32;;;;;;;18.08;59.25;99658.50;4340649;32;31897;-89
2022/06/01 00:31:13;;;;;;;8.75;4.12;;;;;;;18.15;59.05;99649.97;4352677;32;33613;-90
2022/06/01 00:33:51;;;;;;;6.60;4.25;;;;;;;18.15;58.85;99647.19;4365052;32;33368;-89
2022/06/01 00:36:26;;;;;;;9.45;4.95;;;;;;;18.18;58.67;99659.72;4352439;32;33405;-90
2022/06/01 00:38:58;;;;;;;8.30;4.62;;;;;;;18.09;58.82;99660.16;4352843;32;33795;-89
2022/06/01 00:41:29;;;;;;;6.43;3.85;;;;;;;18.13;58.90;99651.31;4340390;32;32178;-89
2022/06/01 00:44:01;;;;;;;9.73;4.50;;;;;;;18.03;59.26;99649.25;4340615;32;33662;-89
2022/06/01 00:46:38;;;;;;;7.40;4.25;;;;;;;18.09;58.93;99642.66;4268864;32;2782209;-88
2022/06/01 00:49:19;;;;;;;6.32;3.80;;;;;;;18.07;58.80;99639.31;4353205;32;34002;-89
2022/06/01 00:51:52;;;;;;;7.03;4.05;;;;;;;18.06;58.63;99640.41;4352147;32;32870;-89
2022/06/01 00:54:26;;;;;;;8.00;4.35;;;;;;;18.00;58.75;99638.66;4352973;32;34619;-89
2022/06/01 00:57:00;;;;;;;7.05;4.43;;;;;;;17.81;59.31;99638.13;4352813;32;34789;-89
2022/06/01 00:59:34;;;;;;;7.93;4.37;;;;;;;17.67;60.23;99645.16;4352797;32;32970;-90
2022/06/01 01:02:08;;;;;;;7.93;4.18;;;;;;;17.81;59.71;99648.41;4352823;32;33698;-89
2022/06/01 01:04:40;;;;;;;8.80;4.50;;;;;;;17.92;59.13;99645.50;4365075;32;34258;-89
2022/06/01 01:07:13;;;;;;;6.20;4.30;;;;;;;17.91;58.94;99649.38;4352470;32;33169;-89
2022/06/01 01:09:47;;;;;;;7.10;4.35;;;;;;;17.90;58.84;99642.16;4352870;32;33167;-89
2022/06/01 01:12:22;;;;;;;6.28;3.75;;;;;;;17.90;58.73;99641.31;4340283;32;32300;-89
2022/06/01 01:14:55;;;;;;;7.30;4.22;;;;;;;18.02;58.22;99645.63;4353245;32;34437;-89
2022/06/01 01:17:37;;;;;;;7.00;3.83;;;;;;;17.91;58.57;99648.53;4352782;32;34512;-89
2022/06/01 01:20:11;;;;;;;6.62;4.22;;;;;;;17.79;58.91;99648.66;4340643;32;33302;-89
2022/06/01 01:23:09;;;;;;;7.37;4.50;;;;;;;17.70;59.13;99655.75;4339851;32;33096;-89
2022/06/01 01:25:42;;;;;;;5.37;3.67;;;;;;;17.79;58.78;99648.66;4340120;32;32811;-89
2022/06/01 01:28:15;;;;;;;7.80;4.18;;;;;;;17.80;58.68;99646.72;4364749;32;34000;-89
2022/06/01 01:31:27;;;;;;;7.07;4.18;;;;;;;17.63;59.25;99649.50;4352347;32;33497;-89
2022/06/01 01:34:01;;;;;;;8.15;4.65;;;;;;;17.76;58.90;99647.22;4362058;32;34543;-89
2022/06/01 01:36:41;;;;;;;6.37;3.85;;;;;;;17.73;58.91;99646.91;4352356;32;34430;-89
2022/06/01 01:39:21;;;;;;;7.03;4.57;;;;;;;17.65;59.09;99650.09;4352236;32;34326;-89
2022/06/01 01:41:52;;;;;;;6.93;4.07;;;;;;;17.64;59.08;99640.94;4352010;32;31670;-89
2022/06/01 01:44:28;;;;;;;11.18;5.20;;;;;;;17.53;59.43;99635.53;4351877;32;33933;-89
2022/06/01 01:47:01;;;;;;;;;;;;;;;17.62;59.10;99636.72;4352646;32;34743;-89
2022/06/01 01:49:34;;;;;;;7.70;4.57;;;;;;;17.67;58.99;99631.28;4352010;32;33369;-88
2022/06/01 01:52:10;;;;;;;7.68;4.87;;;;;;;17.65;59.01;99637.09;4350852;32;33484;-89
2022/06/01 01:54:47;;;;;;;10.32;4.82;;;;;;;17.66;59.07;99636.00;4351783;32;34007;-89
2022/06/01 01:57:36;;;;;;;9.40;5.25;;;;;;;17.59;59.50;99631.69;4339482;32;33983;-89
2022/06/01 02:00:16;;;;;;;7.95;4.47;;;;;;;17.58;59.71;99635.56;4364123;32;33977;-89
2022/06/01 02:03:06;;;;;;;7.70;4.25;;;;;;;17.59;59.76;99632.53;4364205;32;33585;-88
2022/06/01 02:06:04;;;;;;;6.82;4.07;;;;;;;17.52;60.14;99631.06;4353648;32;33587;-89
2022/06/01 02:08:48;;;;;;;8.23;5.03;;;;;;;17.60;59.93;99622.25;4355028;32;35282;-89
2022/06/01 02:14:35;;;;;;;8.77;4.90;;;;;;;17.45;60.79;99623.75;4354982;32;33043;-89
2022/06/01 02:17:15;;;;;;;7.60;4.62;;;;;;;17.53;60.71;99628.03;4353620;32;34433;-89
2022/06/01 02:20:21;;;;;;;8.38;5.20;;;;;;;17.63;60.35;99621.75;4366425;32;35033;-88
2022/06/01 02:22:57;;;;;;;7.18;4.85;;;;;;;17.63;60.22;99619.81;4323785;32;34066;-89
2022/06/01 02:25:31;;;;;;;10.38;4.82;;;;;;;17.50;60.77;99628.53;4353626;32;33642;-89
2022/06/01 02:28:01;;;;;;;8.30;4.55;;;;;;;17.45;61.13;99620.16;4353416;32;32950;-88
2022/06/01 02:30:40;;;;;;;7.32;4.80;;;;;;;17.58;60.62;99625.28;4353656;32;35118;-89
2022/06/01 02:33:22;;;;;;;7.60;4.50;;;;;;;17.61;60.44;99626.72;4353404;32;32435;-90
2022/06/01 02:36:00;;;;;;;8.90;5.28;;;;;;;17.55;60.67;99630.56;4354521;32;33147;-89
2022/06/01 02:38:36;;;;;;;7.30;5.00;;;;;;;17.65;60.36;99625.13;4353384;32;33315;-90
2022/06/01 02:42:25;;;;;;;9.10;5.00;;;;;;;17.53;60.80;99628.03;4354303;32;34490;-89
2022/06/01 02:44:02;;;;;;;7.70;4.55;;;;;;;17.52;60.97;99626.34;4355427;32;34306;-89
2022/06/01 02:46:33;;;;;;;8.40;4.68;;;;;;;17.56;61.17;99627.50;4353695;32;32708;-89
2022/06/01 02:49:06;;;;;;;7.72;4.60;;;;;;;17.63;61.03;99625.38;4365841;32;32932;-89
2022/06/01 02:51:39;;;;;;;8.25;5.43;;;;;;;17.70;60.87;99626.06;4353893;32;35284;-88
2022/06/01 02:54:10;;;;;;;9.10;5.18;;;;;;;17.83;60.38;99616.50;4353747;32;33904;-89
2022/06/01 02:56:41;;;;;;;9.65;5.28;;;;;;;17.71;60.95;99624.12;4353621;32;33222;-89
2022/06/01 02:59:12;;;;;;;8.60;4.70;;;;;;;17.78;60.84;99630.31;4341101;32;33269;-89
2022/06/01 03:01:45;;;;;;;9.52;5.57;;;;;;;17.65;61.64;99625.13;4341232;32;34683;-89
2022/06/01 03:04:22;;;;;;;10.88;6.00;;;;;;;17.70;61.66;99622.44;4354315;32;33820;-88
2022/06/01 03:07:07;;;;;;;8.05;5.35;;;;;;;17.72;61.81;99621.09;4355488;32;33306;-89
2022/06/01 03:09:42;;;;;;;9.60;5.45;;;;;;;17.85;61.59;99619.87;4353743;32;33758;-89
2022/06/01 03:12:18;;;;;;;;;;;;;;;17.79;61.98;99626.44;4353594;32;33902;-90
2022/06/01 03:14:51;;;;;;;10.13;6.72;;;;;;;17.88;61.96;99619.34;4352689;32;33606;-89
2022/06/01 03:17:25;;;;;;;11.82;7.20;;;;;;;17.89;62.41;99621.03;4353244;32;32788;-89
2022/06/01 03:19:55;;;;;;;12.98;7.93;;;;;;;17.83;62.94;99616.50;4353543;32;32704;-89
2022/06/01 03:22:29;;;;;;;11.55;6.93;;;;;;;17.91;63.25;99623.53;4353159;32;34353;-90
2022/06/01 03:25:02;;;;;;;9.88;6.35;;;;;;;18.02;62.88;99620.63;4354020;32;34166;-85
2022/06/01 03:27:33;;;;;;;10.63;6.82;;;;;;;18.07;63.13;99609.59;4352861;32;32034;-84
2022/06/01 03:30:07;;;;;;;10.93;6.57;;;;;;;18.13;63.13;99604.09;4353281;32;34558;-84
2022/06/01 03:32:43;;;;;;;14.82;7.12;;;;;;;18.10;63.42;99609.06;4353677;32;34497;-84
2022/06/01 03:35:25;;;;;;;14.13;9.20;;;;;;;18.22;63.26;99613.63;4354742;32;34616;-84
2022/06/01 03:38:00;;;;;;;18.40;12.07;;;;;;;18.36;62.81;99639.91;4353220;32;32962;-84
2022/06/01 03:40:37;;;;;;;20.33;12.70;;;;;;;18.40;63.84;99663.28;4353101;32;34519;-85
2022/06/01 03:43:14;;;;;;;20.05;12.15;;;;;;;17.72;69.47;99690.47;4341053;32;33500;-85
2022/06/01 03:45:59;;;;;;;21.55;13.05;;;;;;;17.45;70.04;99709.78;4354879;32;33677;-84
2022/06/01 03:48:37;;;;;;;24.37;14.20;;;;;;;18.04;67.17;99700.91;4341287;32;32938;-85
2022/06/01 03:51:13;;;;;;;23.77;13.77;;;;;;;18.20;66.74;99699.19;4353607;32;34520;-84
2022/06/01 03:53:46;;;;;;;26.90;16.10;;;;;;;18.28;66.63;99695.91;4352681;32;33149;-85
2022/06/01 03:56:17;;;;;;;29.23;16.05;;;;;;;18.23;67.07;99693.09;4340728;32;32875;-85
2022/06/01 03:58:51;;;;;;;29.77;17.95;;;;;;;18.31;66.94;99698.19;4353105;32;32729;-85
2022/06/01 04:01:22;;;;;;;31.23;18.58;;;;;;;18.45;66.59;99691.13;4354933;32;32381;-85
2022/06/01 04:03:59;;;;;;;25.60;14.48;;;;;;;18.44;66.75;99684.72;4364851;32;34083;-85
2022/06/01 04:06:30;;;;;;;;;;;;;;;18.41;67.24;99673.28;4373741;32;34719;-84
2022/06/01 04:09:05;;;;;;;24.58;13.98;;;;;;;18.46;67.38;99672.53;4356123;32;32753;-84
2022/06/01 04:11:36;;;;;;;28.75;16.15;;;;;;;18.55;67.13;99680.13;4363036;32;33725;-85
2022/06/01 04:14:10;;;;;;;30.00;18.83;;;;;;;18.51;67.40;99683.69;4367806;32;32648;-85
2022/06/01 04:16:42;;;;;;;31.33;18.12;;;;;;;18.68;66.73;99685.31;4347311;32;32042;-89
2022/06/01 04:19:18;;;;;;;29.42;17.55;;;;;;;18.70;66.79;99688.66;4352368;32;32947;-92
2022/06/01 04:21:52;;;;;;;29.25;18.20;;;;;;;18.68;67.29;99688.09;4375699;32;34841;-92
2022/06/01 04:24:28;;;;;;;30.50;18.42;;;;;;;18.80;67.17;99689.88;4367763;32;32463;-91
2022/06/01 04:26:59;;;;;;;33.10;19.77;;;;;;;18.91;66.76;99684.12;4355247;32;34919;-93
2022/06/01 04:29:35;;;;;;;30.37;18.98;;;;;;;18.87;67.35;99688.53;4340484;32;32066;-88
2022/06/01 04:32:10;;;;;;;33.53;19.20;;;;;;;19.12;66.45;99696.28;4353957;32;32289;-94
2022/06/01 04:34:46;;;;;;;31.75;20.25;;;;;;;19.28;66.00;99695.31;4353103;32;32544;-84
2022/06/01 04:37:22;;;;;;;40.12;23.45;;;;;;;19.17;66.66;99690.75;4378640;32;34022;-92
2022/06/01 04:39:56;;;;;;;34.83;21.25;;;;;;;19.17;66.92;99690.75;4367768;32;33079;-84
2022/06/01 04:42:27;;;;;;;38.92;22.27;;;;;;;19.26;66.72;99694.75;4368107;32;34503;-86
2022/06/01 04:44:57;;;;;;;36.53;20.15;;;;;;;19.28;67.10;99698.09;4368051;32;35172;-94
2022/06/01 04:47:25;;;;;;;33.50;20.98;;;;;;;19.21;68.27;99688.28;4366993;32;33991;-95
2022/06/01 04:49:59;;;;;;;38.47;22.37;;;;;;;19.30;68.37;99686.69;4367547;32;32261;-91
2022/06/01 04:52:27;;;;;;;34.58;20.67;;;;;;;19.39;68.04;99680.37;4367584;32;33666;-91
2022/06/01 04:55:01;;;;;;;44.67;27.65;;;;;;;19.47;67.99;99692.12;4354922;32;32860;-90
2022/06/01 04:57:29;;;;;;;32.67;20.55;;;;;;;19.54;67.84;99689.94;4367748;32;33962;-90
2022/06/01 04:59:57;;;;;;;31.08;19.60;;;;;;;19.69;67.18;99693.69;4355248;32;31957;-88
2022/06/01 05:02:25;;;;;;;41.75;26.92;;;;;;;19.67;67.42;99695.06;4367686;32;33657;-92
2022/06/01 05:04:56;;;;;;;35.85;20.27;;;;;;;19.72;67.70;99697.88;4367670;32;35381;-85
2022/06/01 05:07:26;;;;;;;31.77;19.27;;;;;;;19.80;67.70;99686.22;4353102;32;33865;-85
2022/06/01 05:09:54;;;;;;;27.65;18.83;;;;;;;20.00;66.86;99689.13;4364238;32;32911;-91
2022/06/01 05:12:24;;;;;;;23.87;14.95;;;;;;;20.05;66.57;99691.09;4352242;32;32355;-89
2022/06/01 05:14:52;;;;;;;25.15;15.85;;;;;;;19.92;66.83;99697.16;4364579;32;32589;-92
2022/06/01 05:17:20;;;;;;;22.48;14.77;;;;;;;19.74;67.31;99692.88;4352537;32;33455;-91
2022/06/01 05:19:48;;;;;;;22.17;14.25;;;;;;;19.96;66.21;99706.66;4364627;32;33297;-90
2022/06/01 05:22:16;;;;;;;21.65;13.77;;;;;;;19.99;65.87;99694.97;4346898;32;32123;-94
2022/06/01 05:24:44;;;;;;;23.45;12.80;;;;;;;19.79;66.16;99704.03;4352235;32;34373;-94
2022/06/01 05:27:12;;;;;;;22.52;14.75;;;;;;;19.76;65.84;99707.38;4352000;32;32323;-94
2022/06/01 05:29:43;;;;;;;19.92;12.18;;;;;;;19.88;65.41;99709.94;4351381;32;31174;-94
2022/06/01 05:32:11;;;;;;;22.75;13.07;;;;;;;19.98;64.89;99719.22;4352547;32;34796;-96
2022/06/01 05:34:39;;;;;;;16.20;10.63;;;;;;;20.26;63.51;99712.34;4340322;32;32980;-95
2022/06/01 05:37:09;;;;;;;17.70;8.25;;;;;;;20.15;63.83;99715.41;4352360;32;34679;-95
2022/06/01 05:39:40;;;;;;;20.45;12.82;;;;;;;20.12;63.21;99715.94;4353283;32;33340;-96
2022/06/01 05:42:08;;;;;;;14.65;8.80;;;;;;;20.34;62.52;99727.72;4354707;32;33700;-93
2022/06/01 05:44:38;;;;;;;15.40;7.30;;;;;;;20.17;63.02;99741.00;4364844;32;33651;-95
2022/06/01 05:47:06;;;;;;;10.48;6.60;;;;;;;20.14;63.10;99741.59;4363874;32;34171;-96
2022/06/01 05:49:33;;;;;;;12.40;6.85;;;;;;;19.72;64.18;99745.22;4367928;32;33439;-94
2022/06/01 05:52:01;;;;;;;14.38;7.43;;;;;;;19.83;63.81;99751.69;4371862;32;32421;-96
2022/06/01 05:54:32;;;;;;;10.52;7.10;;;;;;;20.13;62.77;99745.47;4365256;32;32685;-87
2022/06/01 05:57:00;;;;;;;14.73;8.23;;;;;;;20.08;62.83;99746.28;4342567;32;33488;-96
2022/06/01 05:59:32;;;;;;;11.38;6.65;;;;;;;20.11;62.83;99754.09;4353934;32;34006;-96
2022/06/01 06:02:02;;;;;;;11.45;6.43;;;;;;;19.75;64.56;99755.81;4353900;32;32246;-96
2022/06/01 06:04:30;;;;;;;12.48;6.40;;;;;;;20.01;63.48;99759.63;4354871;32;34700;-96
2022/06/01 06:06:58;;;;;;;12.40;7.25;;;;;;;19.94;63.46;99754.28;4354734;32;32916;-93
2022/06/01 06:09:26;;;;;;;11.05;6.65;;;;;;;19.97;63.44;99752.91;4358405;32;31849;-96
2022/06/01 06:11:57;;;;;;;13.80;7.25;;;;;;;19.74;64.08;99751.34;4340660;32;32345;-96
2022/06/01 06:14:31;;;;;;;14.10;7.05;;;;;;;20.03;63.32;99741.53;4345289;32;33000;-95
2022/06/01 06:17:23;;;;;;;15.63;7.15;;;;;;;20.06;63.47;99756.87;4355480;32;34260;-96
2022/06/01 06:20:22;;;;;;;13.15;7.07;;;;;;;20.31;62.56;99754.19;4343328;32;33534;-96
2022/06/01 06:23:01;;;;;;;16.67;7.18;;;;;;;20.05;63.78;99752.41;4367311;32;33768;-96
2022/06/01 06:25:35;;;;;;;14.10;7.43;;;;;;;20.37;62.40;99755.06;4351759;32;35165;-96
2022/06/01 06:28:03;;;;;;;12.98;8.05;;;;;;;20.30;62.90;99765.59;4351165;32;34204;-96
2022/06/01 06:30:30;;;;;;;15.52;8.32;;;;;;;20.33;62.65;99765.06;4351565;32;33406;-96
2022/06/01 06:33:01;;;;;;;12.00;7.93;;;;;;;20.29;62.48;99769.50;4350329;32;32421;-96
2022/06/01 06:35:29;;;;;;;11.18;7.95;;;;;;;20.29;62.76;99766.72;4349585;32;34662;-96
2022/06/01 06:37:57;;;;;;;14.50;9.07;;;;;;;20.32;62.82;99772.59;4352336;32;34101;-96
2022/06/01 06:40:25;;;;;;;18.15;8.15;;;;;;;20.35;62.19;99772.06;4364581;32;33375;-96
2022/06/01 06:42:53;;;;;;;13.95;8.13;;;;;;;20.33;62.39;99773.44;4350244;32;32125;-95
2022/06/01 06:45:22;;;;;;;10.38;7.40;;;;;;;20.24;62.94;99775.06;4338728;32;33732;-95
2022/06/01 06:47:50;;;;;;;9.85;7.18;;;;;;;19.71;64.53;99786.13;4352451;32;33733;-96
2022/06/01 06:50:21;;;;;;;22.23;14.23;;;;;;;20.27;62.77;99791.22;4340291;32;31753;-96
2022/06/01 06:53:11;;;;;;;14.15;7.80;;;;;;;19.97;64.04;99801.09;4346765;32;32261;-96
2022/06/01 06:55:39;;;;;;;13.32;7.37;;;;;;;19.78;64.95;99797.06;4355074;32;34188;-96
2022/06/01 06:58:08;;;;;;;11.73;7.87;;;;;;;19.73;64.92;99786.72;4343880;32;32583;-96
2022/06/01 07:00:38;;;;;;;12.80;8.48;;;;;;;19.97;64.81;99786.34;4354560;32;31742;-96
2022/06/01 07:03:06;;;;;;;15.23;8.35;;;;;;;19.95;65.17;99791.34;4341193;32;32113;-96
2022/06/01 07:08:21;;;;;;;15.57;8.35;;;;;;;20.11;64.11;99795.91;4355543;32;32741;-96
2022/06/01 07:10:49;;;;;;;20.17;11.70;;;;;;;20.19;64.50;99802.87;4353046;32;31789;-96
2022/06/01 07:13:19;;;;;;;14.57;8.80;;;;;;;19.86;65.55;99812.44;4339839;32;32224;-96
2022/06/01 07:15:48;;;;;;;10.70;8.00;;;;;;;20.12;64.38;99819.03;4353248;32;35108;-96
2022/06/01 07:18:17;;;;;;;12.63;6.85;;;;;;;20.35;64.04;99813.88;4354759;32;32463;-95
2022/06/01 07:20:46;;;;;;;12.65;9.52;;;;;;;20.37;64.17;99813.59;4364747;32;32707;-96
2022/06/01 07:23:14;;;;;;;10.30;7.12;;;;;;;20.51;63.48;99820.41;4357022;32;33669;-96
2022/06/01 07:25:44;;;;;;;22.52;15.00;;;;;;;20.76;63.22;99822.47;4346136;32;32872;-82
2022/06/01 07:28:14;;;;;;;8.90;6.20;;;;;;;20.68;63.51;99809.06;4350679;32;33229;-84
2022/06/01 07:30:44;;;;;;;7.35;5.18;;;;;;;20.79;62.74;99809.94;4350687;32;33571;-85
2022/06/01 07:33:12;;;;;;;11.50;7.05;;;;;;;20.82;62.58;99806.56;4350618;32;33850;-85
2022/06/01 07:35:40;;;;;;;10.80;6.30;;;;;;;21.20;61.42;99800.53;4338452;32;34125;-86
2022/06/01 07:43:49;;;;;;;7.82;4.35;;;;;;;21.17;59.66;99806.69;4362811;32;34770;-84
2022/06/01 07:46:23;;;;;;;6.80;4.10;;;;;;;21.38;60.25;99802.00;4350408;32;33906;-84
2022/06/01 07:48:53;;;;;;;8.05;4.35;;;;;;;21.70;58.80;99802.56;4350807;32;34456;-83
2022/06/01 07:51:42;;;;;;;6.43;3.60;;;;;;;21.53;58.25;99798.38;4342883;32;31871;-84
2022/06/01 07:54:14;;;;;;;7.10;4.53;;;;;;;21.80;59.08;99803.69;4350399;32;33807;-85
2022/06/01 07:56:46;;;;;;;8.93;4.30;;;;;;;22.06;58.68;99807.34;4350907;32;33742;-84
2022/06/01 07:59:14;;;;;;;21.02;5.62;;;;;;;22.06;57.65;99819.34;4338316;32;32402;-82
2022/06/01 08:01:42;;;;;;;50.97;8.30;;;;;;;22.24;57.65;99815.09;4349615;32;33423;-85
2022/06/01 08:04:16;;;;;;;13.45;4.62;;;;;;;22.08;56.93;99821.88;4337735;32;31874;-83
2022/06/01 08:06:44;;;;;;;20.00;4.85;;;;;;;22.18;56.54;99821.81;4350566;32;33757;-84
2022/06/01 08:09:24;;;;;;;6.37;3.62;;;;;;;22.26;56.19;99816.50;4340433;32;33368;-84
2022/06/01 08:14:40;;;;;;;14.68;4.20;;;;;;;22.30;56.44;99825.16;4362740;32;33726;-83
2022/06/01 08:17:09;;;;;;;20.23;6.45;;;;;;;22.23;55.39;99824.59;4350293;32;34326;-84
2022/06/01 08:19:36;;;;;;;17.02;5.30;;;;;;;22.44;54.97;99825.41;4350317;32;33895;-83
2022/06/01 08:22:04;;;;;;;17.55;6.45;;;;;;;22.40;55.14;99829.88;4350449;32;33453;-84
2022/06/01 08:24:32;;;;;;;16.67;3.80;;;;;;;22.59;54.22;99829.00;4350436;32;33940;-82
2022/06/01 08:27:00;;;;;;;10.85;3.87;;;;;;;22.50;54.53;99830.72;4350183;32;34218;-83
2022/06/01 08:29:28;;;;;;;9.75;3.95;;;;;;;22.72;53.73;99832.31;4338226;32;32979;-84
2022/06/01 08:31:56;;;;;;;6.15;3.20;;;;;;;22.95;53.00;99840.06;4350342;32;34241;-83
2022/06/01 08:34:27;;;;;;;11.88;4.07;;;;;;;23.20;53.97;99839.94;4350473;32;34096;-83
2022/06/01 08:36:55;;;;;;;8.13;3.65;;;;;;;23.20;52.04;99844.72;4350169;32;34496;-87
2022/06/01 08:39:23;;;;;;;14.55;4.28;;;;;;;23.22;52.22;99843.28;4350415;32;33864;-85
2022/06/01 08:41:51;;;;;;;8.40;3.00;;;;;;;23.25;51.98;99847.47;4350318;32;33929;-82
2022/06/01 08:44:23;;;;;;;8.75;3.50;;;;;;;23.11;52.05;99847.28;4375152;32;33872;-83
2022/06/01 08:46:52;;;;;;;7.57;3.25;;;;;;;23.14;52.37;99845.84;4352834;32;35374;-83
2022/06/01 08:49:27;;;;;;;6.37;3.45;;;;;;;23.02;51.04;99849.00;4352966;32;33776;-83
2022/06/01 08:51:55;;;;;;;7.55;3.75;;;;;;;23.34;50.76;99848.56;4352635;32;31309;-83
2022/06/01 08:54:26;;;;;;;5.95;3.37;;;;;;;23.86;50.29;99838.66;4364855;32;32390;-82
2022/06/01 08:57:04;;;;;;;261.80;171.15;;;;;;;23.90;49.72;99843.41;4378595;32;35248;-84
2022/06/01 08:59:41;;;;;;;12.50;8.10;;;;;;;24.19;49.47;99839.75;4364969;32;33970;-82
2022/06/01 09:02:37;;;;;;;9.88;5.35;;;;;;;24.23;49.30;99858.50;4352740;32;32770;-83
2022/06/01 09:05:23;;;;;;;7.47;2.87;;;;;;;24.50;48.43;99848.75;4364973;32;33760;-81
2022/06/01 09:08:04;;;;;;;9.90;3.75;;;;;;;24.44;47.38;99839.53;4352484;32;33021;-83
2022/06/01 09:10:51;;;;;;;5.50;3.30;;;;;;;24.76;47.67;99846.44;4352943;32;34044;-83
2022/06/01 09:13:25;;;;;;;4.97;2.70;;;;;;;24.74;45.66;99843.13;4352325;32;33061;-83
2022/06/01 09:16:03;;;;;;;6.57;2.40;;;;;;;25.08;45.57;99852.25;4350985;32;32774;-82
2022/06/01 09:18:41;;;;;;;6.72;2.70;;;;;;;24.69;45.49;99860.03;4364538;32;33040;-83
2022/06/01 09:24:22;;;;;;;5.55;2.37;;;;;;;25.14;44.89;99853.03;4354137;32;32214;-83
2022/06/01 09:27:00;;;;;;;6.87;2.55;;;;;;;25.23;44.01;99860.50;4364433;32;33265;-83
2022/06/01 09:29:33;;;;;;;4.15;2.40;;;;;;;25.23;43.49;99854.88;4352058;32;33896;-82
2022/06/01 09:32:07;;;;;;;4.87;2.58;;;;;;;25.05;44.29;99868.88;4352243;32;33224;-83
2022/06/01 09:34:43;;;;;;;11.43;6.43;;;;;;;25.51;43.50;99857.84;4364631;32;34389;-85
2022/06/01 09:37:25;;;;;;;4.40;2.30;;;;;;;25.62;43.22;99862.16;4352106;32;33717;-83
2022/06/01 09:39:57;;;;;;;4.93;2.42;;;;;;;25.52;41.32;99853.88;4352228;32;34778;-83
2022/06/01 09:42:38;;;;;;;4.12;2.30;;;;;;;25.73;41.88;99852.47;4364332;32;34189;-84
2022/06/01 09:45:49;;;;;;;6.47;1.98;;;;;;;26.02;42.39;99862.66;4351963;32;31898;-84
2022/06/01 09:48:27;;;;;;;7.62;5.37;;;;;;;25.81;41.77;99863.03;4362256;32;33588;-84
2022/06/01 09:51:12;;;;;;;5.10;2.33;;;;;;;26.24;41.62;99869.31;4364369;32;35218;-82
2022/06/01 09:53:50;;;;;;;3.90;2.12;;;;;;;26.40;40.03;99866.25;4364670;32;33940;-83
2022/06/01 09:56:30;;;;;;;5.05;2.30;;;;;;;26.25;39.69;99859.72;4377856;32;33872;-84
2022/06/01 10:07:24;;;;;;;4.03;1.80;;;;;;;27.14;36.92;99859.44;4366112;32;34436;-82
2022/06/01 10:10:01;;;;;;;4.45;2.10;;;;;;;27.15;36.33;99860.28;4364325;32;33681;-83
2022/06/01 10:12:34;;;;;;;5.05;2.60;;;;;;;27.42;36.43;99857.38;4361638;32;34458;-83
2022/06/01 10:15:14;;;;;;;3.22;1.90;;;;;;;27.33;38.73;99861.25;4326611;33;33813;-83
2022/06/01 10:17:46;;;;;;;5.70;2.65;;;;;;;27.52;36.39;99853.50;4333921;33;32809;-83
2022/06/01 10:20:17;;;;;;;5.00;2.10;;;;;;;27.46;37.51;99854.75;4346114;33;34427;-83
2022/06/01 10:22:57;;;;;;;4.62;2.22;;;;;;;27.71;36.56;99862.66;4334217;33;33928;-82
2022/06/01 10:25:52;;;;;;;4.07;2.47;;;;;;;27.77;36.57;99869.84;4335466;32;32371;-83
2022/06/01 10:28:41;;;;;;;3.08;1.70;;;;;;;28.28;36.99;99862.94;4333180;32;32825;-83
2022/06/01 10:31:34;;;;;;;2.90;1.70;;;;;;;28.30;35.46;99849.34;4351189;32;33035;-90
2022/06/01 10:34:29;;;;;;;4.22;1.85;;;;;;;27.98;34.15;99866.50;4338961;32;34520;-92
2022/06/01 10:37:19;;;;;;;4.82;2.08;;;;;;;28.60;34.24;99860.97;4338733;32;32603;-94
2022/06/01 10:39:54;;;;;;;3.15;1.87;;;;;;;28.52;34.21;99868.25;4350465;32;33576;-91
2022/06/01 10:45:37;;;;;;;3.53;1.77;;;;;;;29.05;33.75;99864.50;4340260;32;34235;-92
2022/06/01 10:48:12;;;;;;;2.87;1.85;;;;;;;29.33;34.13;99853.75;4350728;32;33854;-84
2022/06/01 10:51:02;;;;;;;3.25;1.77;;;;;;;29.49;33.08;99857.81;4351350;32;32819;-83
2022/06/01 10:53:59;;;;;;;19.87;2.90;;;;;;;29.52;34.00;99856.31;4340729;32;33283;-87
2022/06/01 10:56:30;;;;;;;7.95;6.07;;;;;;;29.70;31.65;99855.16;4339587;32;34385;-90
2022/06/01 10:59:03;;;;;;;36.92;32.65;;;;;;;29.75;31.56;99861.50;4338409;32;33424;-84
2022/06/01 11:02:12;;;;;;;31.85;23.67;;;;;;;30.24;31.79;99845.16;4335355;32;32915;-85
2022/06/01 11:05:13;;;;;;;8.93;6.25;;;;;;;30.38;31.96;99851.44;4334741;32;32078;-85
2022/06/01 11:08:22;;;;;;;5.18;2.83;;;;;;;30.10;30.31;99867.16;4338155;32;33889;-84
2022/06/01 11:11:02;;;;;;;8.02;3.65;;;;;;;30.29;30.11;99850.63;4327422;32;33292;-84
2022/06/01 11:13:44;;;;;;;6.50;4.60;;;;;;;30.58;30.15;99858.41;4338549;32;33794;-85
2022/06/01 11:16:31;;;;;;;5.30;3.20;;;;;;;30.73;30.89;99848.50;4350529;32;34671;-86
2022/06/01 11:19:14;;;;;;;8.70;4.57;;;;;;;31.00;29.26;99845.22;4338292;32;33994;-85
2022/06/01 11:22:14;;;;;;;6.45;3.95;;;;;;;31.27;29.46;99854.44;4338209;32;32372;-84
2022/06/01 11:24:45;;;;;;;6.05;2.28;;;;;;;30.94;29.67;99852.25;4337795;32;32263;-91
2022/06/01 11:27:31;;;;;;;7.03;5.00;;;;;;;31.07;29.69;99847.53;4350403;32;33854;-92
2022/06/01 11:29:59;;;;;;;;;;;;;;;31.01;29.72;99844.06;4338714;32;34614;-90
2022/06/01 11:32:35;;;;;;;3.17;1.80;;;;;;;31.01;28.60;99849.72;4350868;32;34388;-90
2022/06/01 11:35:15;;;;;;;5.47;2.60;;;;;;;31.07;28.24;99842.69;4350766;32;34103;-90
2022/06/01 11:37:46;;;;;;;13.40;4.15;;;;;;;31.32;28.96;99832.38;4337363;32;33701;-90
2022/06/01 11:40:22;;;;;;;7.50;4.00;;;;;;;31.32;28.97;99821.03;4338187;32;32847;-92
2022/06/01 11:43:06;;;;;;;8.10;3.87;;;;;;;31.44;28.51;99832.47;4352851;32;34806;-91
2022/06/01 11:45:48;;;;;;;13.43;9.38;;;;;;;31.38;28.90;99841.50;4365366;32;33999;-91
2022/06/01 11:48:22;;;;;;;9.18;6.20;;;;;;;31.68;29.02;99828.97;4365047;32;32327;-90
2022/06/01 11:50:53;;;;;;;6.93;3.27;;;;;;;31.74;28.50;99823.91;4352962;32;32704;-92
2022/06/01 11:53:38;;;;;;;4.40;2.22;;;;;;;31.72;27.81;99829.94;4365605;32;34616;-90
2022/06/01 11:56:30;;;;;;;4.37;2.15;;;;;;;31.42;26.92;99825.47;4353333;32;33333;-90
2022/06/01 11:58:58;;;;;;;3.17;1.37;;;;;;;31.29;26.89;99829.38;4345723;32;31545;-89
2022/06/01 12:01:41;;;;;;;5.50;3.35;;;;;;;30.92;27.16;99833.94;4353127;32;32960;-90
2022/06/01 12:04:18;;;;;;;6.32;3.40;;;;;;;31.32;28.27;99837.22;4365365;32;33947;-89
2022/06/01 12:06:54;;;;;;;3.87;2.00;;;;;;;31.39;27.82;99829.81;4353024;32;32680;-90
2022/06/01 12:09:36;;;;;;;6.18;1.70;;;;;;;31.41;27.56;99830.31;4353381;32;33114;-90
2022/06/01 12:12:04;;;;;;;3.58;1.92;;;;;;;31.40;26.81;99833.50;4365252;32;34700;-92
2022/06/01 12:14:57;;;;;;;5.80;1.90;;;;;;;31.68;27.83;99840.31;4365220;32;34685;-90
2022/06/01 12:17:31;;;;;;;4.25;1.50;;;;;;;31.81;27.32;99838.38;4365343;32;33874;-90
2022/06/01 12:20:11;;;;;;;4.60;1.77;;;;;;;31.89;26.90;99828.94;4365396;32;34345;-90
2022/06/01 12:28:48;;;;;;;8.02;2.30;;;;;;;31.91;25.78;99825.75;4364895;32;31794;-91
2022/06/01 12:31:22;;;;;;;4.18;1.40;;;;;;;31.65;26.89;99820.28;4365423;32;33867;-91
2022/06/01 12:34:09;;;;;;;4.20;2.53;;;;;;;31.41;25.92;99820.97;4353007;32;34992;-91
2022/06/01 12:36:40;;;;;;;3.15;1.37;;;;;;;31.23;27.01;99822.25;4352519;32;32580;-89
2022/06/01 12:39:21;;;;;;;2.20;1.10;;;;;;;31.45;26.61;99821.94;4352079;32;32487;-89
2022/06/01 12:41:53;;;;;;;3.45;1.37;;;;;;;31.08;24.94;99813.16;4356150;32;33744;-94